createdAt,value
2019-03-18T00:00:01.918Z,68
2019-03-18T00:00:07.694Z,69
2019-03-18T00:00:13.409Z,66
2019-03-18T00:00:14.501Z,67
2019-03-18T00:00:18.066Z,69
2019-03-18T00:00:21.669Z,71
2019-03-18T00:00:26.320Z,73
2019-03-18T00:00:30.829Z,74
2019-03-18T00:00:37.661Z,71
2019-03-18T00:00:42.382Z,70
2019-03-18T00:00:47.158Z,67
2019-03-18T00:00:50.653Z,66
2019-03-18T00:00:59.847Z,67
2019-03-18T00:01:03.340Z,66
2019-03-18T00:01:09.147Z,68
2019-03-18T00:01:12.566Z,67
2019-03-18T00:01:18.449Z,69
2019-03-18T00:01:23.043Z,70
2019-03-18T00:01:25.454Z,71
2019-03-18T00:01:31.194Z,72
2019-03-18T00:01:33.513Z,73
2019-03-18T00:01:34.638Z,72
2019-03-18T00:01:40.333Z,71
2019-03-18T00:01:44.953Z,68
2019-03-18T00:01:55.148Z,67
2019-03-18T00:01:59.827Z,66
2019-03-18T00:02:04.377Z,67
2019-03-18T00:02:11.265Z,65
2019-03-18T00:02:13.605Z,66
2019-03-18T00:02:17.008Z,68
2019-03-18T00:02:22.716Z,69
2019-03-18T00:02:27.235Z,70
2019-03-18T00:02:31.881Z,72
2019-03-18T00:02:35.331Z,73
2019-03-18T00:02:39.854Z,71
2019-03-18T00:02:42.057Z,70
2019-03-18T00:02:43.196Z,69
2019-03-18T00:02:46.699Z,70
2019-03-18T00:02:47.839Z,69
2019-03-18T00:02:50.148Z,70
2019-03-18T00:02:52.379Z,72
2019-03-18T00:02:55.866Z,71
2019-03-18T00:03:05.053Z,73
2019-03-18T00:03:08.450Z,71
2019-03-18T00:03:12.031Z,70
2019-03-18T00:03:15.584Z,69
2019-03-18T00:03:16.746Z,67
2019-03-18T00:03:22.520Z,69
2019-03-18T00:03:25.974Z,68
2019-03-18T00:03:31.819Z,66
2019-03-18T00:03:38.684Z,67
2019-03-18T00:03:43.230Z,69
2019-03-18T00:03:47.816Z,68
2019-03-18T00:03:54.361Z,71
2019-03-18T00:03:59.648Z,70
2019-03-18T00:04:01.856Z,71
2019-03-18T00:04:05.268Z,70
2019-03-18T00:04:09.784Z,72
2019-03-18T00:04:12.069Z,73
2019-03-18T00:04:16.768Z,72
2019-03-18T00:04:19.075Z,73
2019-03-18T00:04:21.288Z,72
2019-03-18T00:04:22.487Z,70
2019-03-18T00:04:34.038Z,71
2019-03-18T00:04:37.602Z,69
2019-03-18T00:04:43.223Z,71
2019-03-18T00:04:50.028Z,69
2019-03-18T00:04:53.441Z,71
2019-03-18T00:04:58.065Z,74
2019-03-18T00:05:03.771Z,76
2019-03-18T00:05:08.346Z,78
2019-03-18T00:05:11.781Z,77
2019-03-18T00:05:17.459Z,78
2019-03-18T00:05:26.883Z,79
2019-03-18T00:05:31.514Z,81
2019-03-18T00:05:36.024Z,84
2019-03-18T00:05:39.553Z,85
2019-03-18T00:05:43.723Z,84
2019-03-18T00:05:49.516Z,83
2019-03-18T00:05:55.401Z,82
2019-03-18T00:05:58.932Z,83
2019-03-18T00:06:03.959Z,85
2019-03-18T00:06:08.674Z,83
2019-03-18T00:06:12.170Z,82
2019-03-18T00:06:15.727Z,81
2019-03-18T00:06:21.450Z,82
2019-03-18T00:06:23.798Z,81
2019-03-18T00:06:26.159Z,83
2019-03-18T00:06:29.771Z,81
2019-03-18T00:06:35.590Z,79
2019-03-18T00:06:39.051Z,77
2019-03-18T00:06:41.405Z,78
2019-03-18T00:06:48.172Z,75
2019-03-18T00:06:50.571Z,76
2019-03-18T00:06:55.168Z,79
2019-03-18T00:07:02.120Z,80
2019-03-18T00:07:11.207Z,81
2019-03-18T00:07:13.517Z,82
2019-03-18T00:07:19.232Z,83
2019-03-18T00:07:26.185Z,82
2019-03-18T00:07:35.295Z,81
2019-03-18T00:07:39.859Z,80
2019-03-18T00:07:44.378Z,77
2019-03-18T00:07:55.865Z,75
2019-03-18T00:08:00.555Z,76
2019-03-18T00:08:05.250Z,73
2019-03-18T00:08:14.407Z,71
2019-03-18T00:08:20.244Z,69
2019-03-18T00:08:23.762Z,68
2019-03-18T00:08:28.499Z,69
2019-03-18T00:08:30.807Z,70
2019-03-18T00:08:31.952Z,69
2019-03-18T00:08:34.281Z,70
2019-03-18T00:08:37.654Z,72
2019-03-18T00:08:39.990Z,73
2019-03-18T00:08:42.404Z,76
2019-03-18T00:08:50.233Z,69
2019-03-18T00:08:52.564Z,67
2019-03-18T00:08:58.124Z,70
2019-03-18T00:09:01.724Z,68
2019-03-18T00:09:06.226Z,70
2019-03-18T00:09:08.484Z,71
2019-03-18T00:09:14.302Z,72
2019-03-18T00:09:15.432Z,73
2019-03-18T00:09:19.028Z,74
2019-03-18T00:09:21.443Z,75
2019-03-18T00:09:23.764Z,76
2019-03-18T00:09:28.362Z,75
2019-03-18T00:09:32.997Z,74
2019-03-18T00:09:40.991Z,76
2019-03-18T00:09:44.419Z,78
2019-03-18T00:09:50.149Z,80
2019-03-18T00:09:53.502Z,79
2019-03-18T00:09:58.157Z,81
2019-03-18T00:10:00.557Z,79
2019-03-18T00:10:05.174Z,78
2019-03-18T00:10:07.502Z,77
2019-03-18T00:10:09.826Z,75
2019-03-18T00:10:13.361Z,76
2019-03-18T00:10:16.879Z,75
2019-03-18T00:10:21.647Z,74
2019-03-18T00:10:25.154Z,76
2019-03-18T00:10:27.595Z,74
2019-03-18T00:10:33.339Z,77
2019-03-18T00:10:40.392Z,78
2019-03-18T00:10:45.040Z,79
2019-03-18T00:10:51.802Z,70
2019-03-18T00:10:55.255Z,67
2019-03-18T00:11:01.027Z,65
2019-03-18T00:11:03.461Z,64
2019-03-18T00:11:06.968Z,66
2019-03-18T00:11:10.327Z,67
2019-03-18T00:11:14.980Z,65
2019-03-18T00:11:17.228Z,66
2019-03-18T00:11:22.889Z,67
2019-03-18T00:11:26.424Z,66
2019-03-18T00:11:30.975Z,67
2019-03-18T00:11:37.858Z,66
2019-03-18T00:11:41.360Z,65
2019-03-18T00:11:45.981Z,64
2019-03-18T00:11:53.839Z,65
2019-03-18T00:11:57.408Z,64
2019-03-18T00:12:01.988Z,62
2019-03-18T00:12:07.562Z,63
2019-03-18T00:12:09.947Z,65
2019-03-18T00:12:20.116Z,66
2019-03-18T00:12:24.777Z,67
2019-03-18T00:12:27.125Z,68
2019-03-18T00:12:31.764Z,69
2019-03-18T00:12:34.033Z,68
2019-03-18T00:12:38.756Z,70
2019-03-18T00:12:41.073Z,69
2019-03-18T00:12:43.319Z,71
2019-03-18T00:12:46.728Z,69
2019-03-18T00:12:59.839Z,67
2019-03-18T00:13:02.238Z,66
2019-03-18T00:13:06.733Z,67
2019-03-18T00:13:13.611Z,65
2019-03-18T00:13:20.469Z,64
2019-03-18T00:13:24.876Z,63
2019-03-18T00:13:31.713Z,62
2019-03-18T00:13:36.356Z,63
2019-03-18T00:13:40.998Z,64
2019-03-18T00:13:42.164Z,65
2019-03-18T00:13:43.283Z,66
2019-03-18T00:13:46.803Z,65
2019-03-18T00:13:47.911Z,66
2019-03-18T00:13:54.848Z,65
2019-03-18T00:13:57.269Z,67
2019-03-18T00:14:01.888Z,65
2019-03-18T00:14:04.211Z,64
2019-03-18T00:14:07.676Z,62
2019-03-18T00:14:11.234Z,65
2019-03-18T00:14:14.824Z,64
2019-03-18T00:14:18.193Z,63
2019-03-18T00:14:21.713Z,64
2019-03-18T00:14:27.505Z,65
2019-03-18T00:14:30.815Z,62
2019-03-18T00:14:36.521Z,60
2019-03-18T00:14:38.822Z,62
2019-03-18T00:14:43.378Z,60
2019-03-18T00:14:45.658Z,62
2019-03-18T00:15:05.021Z,63
2019-03-18T00:15:07.316Z,64
2019-03-18T00:15:11.853Z,63
2019-03-18T00:15:16.629Z,62
2019-03-18T00:15:21.189Z,61
2019-03-18T00:15:24.713Z,62
2019-03-18T00:15:28.110Z,63
2019-03-18T00:15:31.476Z,64
2019-03-18T00:15:33.785Z,63
2019-03-18T00:15:39.547Z,65
2019-03-18T00:15:47.471Z,66
2019-03-18T00:15:51.997Z,65
2019-03-18T00:15:54.299Z,63
2019-03-18T00:16:00.111Z,62
2019-03-18T00:16:02.509Z,60
2019-03-18T00:16:08.420Z,61
2019-03-18T00:16:09.547Z,62
2019-03-18T00:16:13.021Z,63
2019-03-18T00:16:16.514Z,61
2019-03-18T00:16:17.663Z,63
2019-03-18T00:16:21.158Z,64
2019-03-18T00:16:25.868Z,62
2019-03-18T00:16:29.469Z,63
2019-03-18T00:16:35.298Z,65
2019-03-18T00:16:43.264Z,68
2019-03-18T00:16:45.598Z,69
2019-03-18T00:16:48.022Z,68
2019-03-18T00:16:53.755Z,67
2019-03-18T00:16:57.193Z,66
2019-03-18T00:17:00.665Z,64
2019-03-18T00:17:08.602Z,66
2019-03-18T00:17:16.626Z,64
2019-03-18T00:17:18.960Z,62
2019-03-18T00:17:23.604Z,61
2019-03-18T00:17:27.055Z,62
2019-03-18T00:17:31.577Z,61
2019-03-18T00:17:32.698Z,60
2019-03-18T00:17:37.305Z,61
2019-03-18T00:17:44.283Z,62
2019-03-18T00:17:53.534Z,60
2019-03-18T00:17:57.038Z,59
2019-03-18T00:18:00.470Z,60
2019-03-18T00:18:07.480Z,59
2019-03-18T00:18:13.293Z,60
2019-03-18T00:18:15.688Z,61
2019-03-18T00:18:18.045Z,63
2019-03-18T00:18:21.525Z,66
2019-03-18T00:18:27.358Z,67
2019-03-18T00:18:31.923Z,66
2019-03-18T00:18:35.288Z,65
2019-03-18T00:18:38.825Z,67
2019-03-18T00:18:45.708Z,66
2019-03-18T00:18:49.277Z,65
2019-03-18T00:18:52.689Z,63
2019-03-18T00:18:54.920Z,61
2019-03-18T00:19:00.685Z,60
2019-03-18T00:19:16.661Z,61
2019-03-18T00:19:23.721Z,63
2019-03-18T00:19:26.144Z,64
2019-03-18T00:19:31.833Z,63
2019-03-18T00:19:38.679Z,65
2019-03-18T00:19:47.372Z,63
2019-03-18T00:19:50.754Z,62
2019-03-18T00:19:55.414Z,63
2019-03-18T00:19:58.833Z,62
2019-03-18T00:20:07.976Z,63
2019-03-18T00:20:10.291Z,62
2019-03-18T00:20:13.780Z,61
2019-03-18T00:20:20.755Z,62
2019-03-18T00:20:25.355Z,61
2019-03-18T00:20:27.674Z,60
2019-03-18T00:20:30.002Z,61
2019-03-18T00:20:33.436Z,63
2019-03-18T00:20:40.232Z,64
2019-03-18T00:20:48.204Z,65
2019-03-18T00:20:51.639Z,67
2019-03-18T00:20:59.805Z,66
2019-03-18T00:21:03.366Z,67
2019-03-18T00:21:12.288Z,57
2019-03-18T00:21:17.998Z,58
2019-03-18T00:21:21.557Z,59
2019-03-18T00:21:36.526Z,60
2019-03-18T00:21:43.271Z,61
2019-03-18T00:21:58.011Z,62
2019-03-18T00:22:02.726Z,61
2019-03-18T00:22:13.078Z,59
2019-03-18T00:22:16.761Z,58
2019-03-18T00:22:19.104Z,59
2019-03-18T00:22:23.969Z,61
2019-03-18T00:22:26.335Z,60
2019-03-18T00:22:29.732Z,63
2019-03-18T00:22:40.057Z,62
2019-03-18T00:22:43.520Z,64
2019-03-18T00:22:48.084Z,65
2019-03-18T00:22:50.478Z,64
2019-03-18T00:22:56.153Z,63
2019-03-18T00:23:01.844Z,61
2019-03-18T00:23:05.271Z,59
2019-03-18T00:23:10.808Z,58
2019-03-18T00:23:16.511Z,61
2019-03-18T00:23:23.274Z,58
2019-03-18T00:23:26.704Z,56
2019-03-18T00:23:29.034Z,57
2019-03-18T00:23:31.217Z,58
2019-03-18T00:23:33.519Z,59
2019-03-18T00:23:39.263Z,57
2019-03-18T00:23:45.058Z,58
2019-03-18T00:23:49.714Z,59
2019-03-18T00:23:58.954Z,58
2019-03-18T00:24:02.906Z,57
2019-03-18T00:24:08.665Z,59
2019-03-18T00:24:13.297Z,60
2019-03-18T00:24:16.747Z,59
2019-03-18T00:24:19.125Z,61
2019-03-18T00:24:30.438Z,62
2019-03-18T00:24:32.744Z,61
2019-03-18T00:24:37.513Z,63
2019-03-18T00:24:42.028Z,62
2019-03-18T00:24:46.499Z,60
2019-03-18T00:24:52.173Z,63
2019-03-18T00:24:57.812Z,61
2019-03-18T00:25:02.622Z,59
2019-03-18T00:25:04.974Z,58
2019-03-18T00:25:07.337Z,57
2019-03-18T00:25:11.914Z,55
2019-03-18T00:25:18.716Z,57
2019-03-18T00:25:22.314Z,56
2019-03-18T00:25:25.774Z,58
2019-03-18T00:25:29.378Z,59
2019-03-18T00:25:31.803Z,61
2019-03-18T00:25:36.467Z,62
2019-03-18T00:25:39.901Z,63
2019-03-18T00:25:45.554Z,62
2019-03-18T00:25:48.954Z,61
2019-03-18T00:25:52.444Z,59
2019-03-18T00:25:59.498Z,58
2019-03-18T00:26:04.021Z,57
2019-03-18T00:26:08.727Z,55
2019-03-18T00:26:11.068Z,56
2019-03-18T00:26:15.593Z,57
2019-03-18T00:26:18.019Z,58
2019-03-18T00:26:21.463Z,59
2019-03-18T00:26:22.581Z,58
2019-03-18T00:26:24.886Z,57
2019-03-18T00:26:30.943Z,58
2019-03-18T00:26:38.998Z,59
2019-03-18T00:26:42.354Z,60
2019-03-18T00:26:48.159Z,59
2019-03-18T00:26:51.647Z,60
2019-03-18T00:26:59.620Z,61
2019-03-18T00:27:06.480Z,63
2019-03-18T00:27:13.253Z,65
2019-03-18T00:27:17.914Z,63
2019-03-18T00:27:29.417Z,62
2019-03-18T00:27:30.612Z,61
2019-03-18T00:27:35.266Z,59
2019-03-18T00:27:39.976Z,56
2019-03-18T00:27:43.528Z,55
2019-03-18T00:27:46.986Z,54
2019-03-18T00:27:51.664Z,55
2019-03-18T00:27:55.097Z,54
2019-03-18T00:27:58.621Z,55
2019-03-18T00:28:03.289Z,56
2019-03-18T00:28:09.187Z,57
2019-03-18T00:28:10.283Z,59
2019-03-18T00:28:15.859Z,60
2019-03-18T00:28:20.448Z,62
2019-03-18T00:28:22.787Z,61
2019-03-18T00:28:27.478Z,60
2019-03-18T00:28:28.538Z,59
2019-03-18T00:28:34.395Z,60
2019-03-18T00:28:40.248Z,61
2019-03-18T00:28:44.775Z,62
2019-03-18T00:28:47.101Z,63
2019-03-18T00:28:51.805Z,64
2019-03-18T00:28:55.286Z,63
2019-03-18T00:28:57.576Z,64
2019-03-18T00:29:01.110Z,63
2019-03-18T00:29:09.216Z,64
2019-03-18T00:29:16.137Z,63
2019-03-18T00:29:30.909Z,64
2019-03-18T00:29:42.518Z,63
2019-03-18T00:29:51.622Z,62
2019-03-18T00:29:52.834Z,63
2019-03-18T00:29:55.068Z,64
2019-03-18T00:29:57.391Z,63
2019-03-18T00:30:02.095Z,64
2019-03-18T00:30:05.626Z,63
2019-03-18T00:30:10.111Z,65
2019-03-18T00:30:13.593Z,66
2019-03-18T00:30:22.684Z,63
2019-03-18T00:30:27.262Z,64
2019-03-18T00:30:35.184Z,65
2019-03-18T00:30:45.551Z,66
2019-03-18T00:30:47.784Z,64
2019-03-18T00:30:51.192Z,63
2019-03-18T00:30:53.515Z,64
2019-03-18T00:30:56.987Z,63
2019-03-18T00:30:58.141Z,62
2019-03-18T00:31:03.915Z,63
2019-03-18T00:31:10.937Z,65
2019-03-18T00:31:22.322Z,64
2019-03-18T00:31:30.269Z,63
2019-03-18T00:31:37.333Z,65
2019-03-18T00:31:43.028Z,63
2019-03-18T00:31:46.523Z,61
2019-03-18T00:31:50.143Z,63
2019-03-18T00:31:58.336Z,65
2019-03-18T00:32:01.883Z,66
2019-03-18T00:32:05.406Z,67
2019-03-18T00:32:11.201Z,68
2019-03-18T00:32:19.018Z,69
2019-03-18T00:32:25.725Z,71
2019-03-18T00:32:28.082Z,69
2019-03-18T00:32:32.546Z,70
2019-03-18T00:32:35.992Z,69
2019-03-18T00:32:46.188Z,70
2019-03-18T00:32:49.588Z,69
2019-03-18T00:32:54.112Z,68
2019-03-18T00:32:56.515Z,67
2019-03-18T00:33:06.674Z,66
2019-03-18T00:33:13.662Z,65
2019-03-18T00:33:19.349Z,66
2019-03-18T00:33:21.613Z,67
2019-03-18T00:33:26.255Z,66
2019-03-18T00:33:30.828Z,65
2019-03-18T00:33:35.351Z,66
2019-03-18T00:33:36.491Z,65
2019-03-18T00:33:37.610Z,66
2019-03-18T00:33:42.493Z,67
2019-03-18T00:33:48.502Z,64
2019-03-18T00:33:55.434Z,65
2019-03-18T00:34:01.287Z,68
2019-03-18T00:34:06.934Z,67
2019-03-18T00:34:17.021Z,68
2019-03-18T00:34:19.272Z,69
2019-03-18T00:34:21.589Z,70
2019-03-18T00:34:28.326Z,73
2019-03-18T00:34:30.670Z,71
2019-03-18T00:34:34.063Z,69
2019-03-18T00:34:37.520Z,68
2019-03-18T00:34:44.441Z,67
2019-03-18T00:34:50.318Z,66
2019-03-18T00:35:00.657Z,65
2019-03-18T00:35:06.659Z,64
2019-03-18T00:35:13.545Z,66
2019-03-18T00:35:18.145Z,65
2019-03-18T00:35:19.248Z,63
2019-03-18T00:35:28.320Z,62
2019-03-18T00:35:32.978Z,63
2019-03-18T00:35:35.318Z,64
2019-03-18T00:35:39.947Z,65
2019-03-18T00:35:41.126Z,64
2019-03-18T00:35:46.953Z,67
2019-03-18T00:35:51.157Z,66
2019-03-18T00:35:54.606Z,68
2019-03-18T00:36:03.631Z,69
2019-03-18T00:36:10.655Z,67
2019-03-18T00:36:16.408Z,66
2019-03-18T00:36:30.507Z,65
2019-03-18T00:36:35.125Z,64
2019-03-18T00:36:40.843Z,63
2019-03-18T00:36:44.242Z,61
2019-03-18T00:36:54.587Z,59
2019-03-18T00:36:59.362Z,60
2019-03-18T00:37:06.219Z,59
2019-03-18T00:37:12.088Z,60
2019-03-18T00:37:22.678Z,61
2019-03-18T00:37:26.133Z,62
2019-03-18T00:37:30.587Z,63
2019-03-18T00:37:36.374Z,64
2019-03-18T00:37:40.908Z,63
2019-03-18T00:37:44.225Z,64
2019-03-18T00:37:46.485Z,63
2019-03-18T00:37:54.630Z,65
2019-03-18T00:37:59.321Z,64
2019-03-18T00:38:06.196Z,63
2019-03-18T00:38:11.786Z,64
2019-03-18T00:38:18.393Z,63
2019-03-18T00:38:22.955Z,62
2019-03-18T00:38:25.256Z,61
2019-03-18T00:38:31.975Z,69
2019-03-18T00:38:36.517Z,68
2019-03-18T00:38:38.704Z,67
2019-03-18T00:38:44.523Z,66
2019-03-18T00:38:53.676Z,65
2019-03-18T00:38:57.069Z,63
2019-03-18T00:39:05.058Z,65
2019-03-18T00:39:15.524Z,63
2019-03-18T00:39:17.979Z,65
2019-03-18T00:39:23.694Z,66
2019-03-18T00:39:30.521Z,67
2019-03-18T00:39:34.090Z,66
2019-03-18T00:39:38.677Z,67
2019-03-18T00:39:40.956Z,65
2019-03-18T00:39:43.346Z,67
2019-03-18T00:39:45.774Z,68
2019-03-18T00:39:46.910Z,67
2019-03-18T00:39:57.393Z,64
2019-03-18T00:40:03.160Z,65
2019-03-18T00:40:09.930Z,64
2019-03-18T00:40:13.386Z,63
2019-03-18T00:40:19.164Z,64
2019-03-18T00:40:24.961Z,65
2019-03-18T00:40:28.426Z,63
2019-03-18T00:40:33.992Z,62
2019-03-18T00:40:38.671Z,61
2019-03-18T00:40:44.385Z,60
2019-03-18T00:40:46.683Z,61
2019-03-18T00:40:50.100Z,60
2019-03-18T00:40:52.391Z,61
2019-03-18T00:40:56.965Z,63
2019-03-18T00:41:00.429Z,64
2019-03-18T00:41:02.679Z,62
2019-03-18T00:41:12.940Z,64
2019-03-18T00:41:16.363Z,63
2019-03-18T00:41:21.079Z,62
2019-03-18T00:41:23.398Z,63
2019-03-18T00:41:28.016Z,62
2019-03-18T00:41:33.707Z,61
2019-03-18T00:41:39.628Z,59
2019-03-18T00:41:43.226Z,61
2019-03-18T00:41:49.087Z,59
2019-03-18T00:41:53.944Z,61
2019-03-18T00:41:57.492Z,63
2019-03-18T00:42:06.634Z,62
2019-03-18T00:42:07.796Z,61
2019-03-18T00:42:20.261Z,60
2019-03-18T00:42:24.862Z,57
2019-03-18T00:42:36.316Z,59
2019-03-18T00:42:48.711Z,61
2019-03-18T00:42:52.292Z,60
2019-03-18T00:42:56.568Z,61
2019-03-18T00:43:01.203Z,59
2019-03-18T00:43:04.749Z,60
2019-03-18T00:43:10.387Z,61
2019-03-18T00:43:13.914Z,60
2019-03-18T00:43:17.355Z,61
2019-03-18T00:43:19.747Z,59
2019-03-18T00:43:25.499Z,60
2019-03-18T00:43:27.793Z,59
2019-03-18T00:43:35.930Z,60
2019-03-18T00:43:41.663Z,61
2019-03-18T00:43:43.962Z,63
2019-03-18T00:43:53.220Z,61
2019-03-18T00:44:02.478Z,59
2019-03-18T00:44:08.187Z,58
2019-03-18T00:44:19.618Z,57
2019-03-18T00:44:20.950Z,58
2019-03-18T00:44:24.491Z,59
2019-03-18T00:44:47.291Z,58
2019-03-18T00:44:48.476Z,60
2019-03-18T00:44:53.118Z,59
2019-03-18T00:44:56.628Z,60
2019-03-18T00:45:18.205Z,59
2019-03-18T00:45:23.917Z,60
2019-03-18T00:45:30.717Z,61
2019-03-18T00:45:34.245Z,62
2019-03-18T00:45:41.676Z,61
2019-03-18T00:45:44.051Z,60
2019-03-18T00:45:49.963Z,59
2019-03-18T00:45:59.229Z,58
2019-03-18T00:46:07.301Z,59
2019-03-18T00:46:13.075Z,58
2019-03-18T00:46:17.726Z,60
2019-03-18T00:46:22.226Z,59
2019-03-18T00:46:26.759Z,58
2019-03-18T00:46:27.893Z,60
2019-03-18T00:46:30.286Z,59
2019-03-18T00:46:34.947Z,58
2019-03-18T00:46:39.293Z,59
2019-03-18T00:46:44.228Z,60
2019-03-18T00:46:45.329Z,58
2019-03-18T00:46:48.778Z,57
2019-03-18T00:46:51.145Z,56
2019-03-18T00:46:54.619Z,55
2019-03-18T00:46:55.773Z,56
2019-03-18T00:46:57.987Z,55
2019-03-18T00:47:02.649Z,56
2019-03-18T00:47:04.929Z,55
2019-03-18T00:47:16.447Z,54
2019-03-18T00:47:22.243Z,55
2019-03-18T00:47:32.704Z,54
2019-03-18T00:47:35.019Z,53
2019-03-18T00:47:38.557Z,54
2019-03-18T00:47:44.330Z,55
2019-03-18T00:47:47.749Z,56
2019-03-18T00:47:54.718Z,54
2019-03-18T00:47:57.172Z,55
2019-03-18T00:48:00.636Z,57
2019-03-18T00:48:07.561Z,58
2019-03-18T00:48:12.191Z,56
2019-03-18T00:48:15.697Z,57
2019-03-18T00:48:23.739Z,56
2019-03-18T00:48:27.166Z,59
2019-03-18T00:48:35.284Z,61
2019-03-18T00:48:40.849Z,58
2019-03-18T00:48:45.557Z,57
2019-03-18T00:48:49.992Z,58
2019-03-18T00:48:53.519Z,60
2019-03-18T00:49:01.696Z,59
2019-03-18T00:49:11.896Z,58
2019-03-18T00:49:15.413Z,60
2019-03-18T00:49:20.157Z,59
2019-03-18T00:49:30.630Z,58
2019-03-18T00:49:34.203Z,57
2019-03-18T00:49:39.981Z,58
2019-03-18T00:49:45.748Z,57
2019-03-18T00:49:53.691Z,55
2019-03-18T00:50:03.986Z,57
2019-03-18T00:50:15.362Z,58
2019-03-18T00:50:17.702Z,59
2019-03-18T00:50:30.270Z,58
2019-03-18T00:50:32.577Z,59
2019-03-18T00:50:34.948Z,57
2019-03-18T00:50:44.001Z,54
2019-03-18T00:50:46.356Z,56
2019-03-18T00:50:50.893Z,57
2019-03-18T00:50:55.502Z,58
2019-03-18T00:51:01.203Z,59
2019-03-18T00:51:03.439Z,60
2019-03-18T00:51:08.073Z,61
2019-03-18T00:51:10.458Z,63
2019-03-18T00:51:15.033Z,62
2019-03-18T00:51:16.139Z,61
2019-03-18T00:51:24.224Z,62
2019-03-18T00:51:33.425Z,61
2019-03-18T00:51:34.551Z,60
2019-03-18T00:51:39.286Z,59
2019-03-18T00:51:43.965Z,60
2019-03-18T00:51:45.142Z,59
2019-03-18T00:51:49.632Z,57
2019-03-18T00:51:54.281Z,58
2019-03-18T00:51:55.391Z,59
2019-03-18T00:52:00.177Z,58
2019-03-18T00:52:04.763Z,57
2019-03-18T00:52:12.882Z,58
2019-03-18T00:52:17.546Z,59
2019-03-18T00:52:24.561Z,58
2019-03-18T00:52:25.754Z,59
2019-03-18T00:52:29.188Z,60
2019-03-18T00:52:30.363Z,59
2019-03-18T00:52:31.519Z,61
2019-03-18T00:52:36.187Z,62
2019-03-18T00:52:39.518Z,61
2019-03-18T00:52:46.275Z,56
2019-03-18T00:52:50.142Z,57
2019-03-18T00:52:58.137Z,55
2019-03-18T00:53:02.846Z,54
2019-03-18T00:53:09.719Z,55
2019-03-18T00:53:14.589Z,57
2019-03-18T00:53:18.001Z,59
2019-03-18T00:53:23.795Z,61
2019-03-18T00:53:37.343Z,60
2019-03-18T00:53:44.198Z,61
2019-03-18T00:53:46.666Z,59
2019-03-18T00:53:50.172Z,60
2019-03-18T00:53:51.423Z,59
2019-03-18T00:53:56.092Z,61
2019-03-18T00:54:01.917Z,59
2019-03-18T00:54:05.417Z,60
2019-03-18T00:54:08.802Z,59
2019-03-18T00:54:14.547Z,58
2019-03-18T00:54:19.126Z,57
2019-03-18T00:54:20.266Z,56
2019-03-18T00:54:23.692Z,55
2019-03-18T00:54:26.011Z,54
2019-03-18T00:54:29.293Z,52
2019-03-18T00:54:35.058Z,53
2019-03-18T00:54:37.412Z,55
2019-03-18T00:54:39.574Z,53
2019-03-18T00:54:48.542Z,61
2019-03-18T00:54:50.823Z,60
2019-03-18T00:54:56.481Z,58
2019-03-18T00:55:04.582Z,59
2019-03-18T00:55:10.547Z,60
2019-03-18T00:55:16.236Z,59
2019-03-18T00:55:23.247Z,60
2019-03-18T00:55:28.001Z,58
2019-03-18T00:55:31.446Z,59
2019-03-18T00:55:47.180Z,58
2019-03-18T00:55:54.181Z,59
2019-03-18T00:55:58.872Z,58
2019-03-18T00:56:01.178Z,57
2019-03-18T00:56:04.742Z,56
2019-03-18T00:56:07.082Z,57
2019-03-18T00:56:11.769Z,56
2019-03-18T00:56:15.250Z,55
2019-03-18T00:56:16.369Z,57
2019-03-18T00:56:22.128Z,56
2019-03-18T00:56:27.938Z,57
2019-03-18T00:56:29.043Z,58
2019-03-18T00:56:30.132Z,60
2019-03-18T00:56:34.807Z,59
2019-03-18T00:56:42.815Z,60
2019-03-18T00:56:49.712Z,57
2019-03-18T00:56:53.297Z,56
2019-03-18T00:57:03.635Z,55
2019-03-18T00:57:13.014Z,54
2019-03-18T00:57:19.858Z,55
2019-03-18T00:57:22.280Z,57
2019-03-18T00:57:28.085Z,56
2019-03-18T00:57:30.390Z,55
2019-03-18T00:57:34.897Z,56
2019-03-18T00:57:37.237Z,58
2019-03-18T00:57:40.749Z,59
2019-03-18T00:57:44.272Z,60
2019-03-18T00:57:53.359Z,61
2019-03-18T00:57:54.543Z,60
2019-03-18T00:58:00.319Z,61
2019-03-18T00:58:02.646Z,62
2019-03-18T00:58:07.265Z,60
2019-03-18T00:58:12.025Z,59
2019-03-18T00:58:17.781Z,60
2019-03-18T00:58:21.233Z,59
2019-03-18T00:58:25.802Z,58
2019-03-18T00:58:28.090Z,59
2019-03-18T00:58:31.671Z,57
2019-03-18T00:58:35.111Z,55
2019-03-18T00:58:39.756Z,56
2019-03-18T00:58:40.880Z,55
2019-03-18T00:58:52.246Z,52
2019-03-18T00:58:56.921Z,53
2019-03-18T00:59:00.366Z,52
2019-03-18T00:59:12.872Z,53
2019-03-18T00:59:17.338Z,54
2019-03-18T00:59:18.497Z,55
2019-03-18T00:59:27.702Z,54
2019-03-18T00:59:28.871Z,55
2019-03-18T00:59:32.317Z,54
2019-03-18T00:59:36.976Z,55
2019-03-18T00:59:38.158Z,56
2019-03-18T00:59:42.735Z,54
2019-03-18T00:59:49.593Z,56
2019-03-18T00:59:56.547Z,55
2019-03-18T01:00:00.066Z,57
2019-03-18T01:00:24.006Z,58
2019-03-18T01:00:29.717Z,57
2019-03-18T01:00:40.101Z,56
2019-03-18T01:00:44.729Z,55
2019-03-18T01:00:48.273Z,56
2019-03-18T01:00:56.252Z,57
2019-03-18T01:00:58.618Z,59
2019-03-18T01:01:04.427Z,58
2019-03-18T01:01:12.553Z,59
2019-03-18T01:01:19.417Z,58
2019-03-18T01:01:21.778Z,56
2019-03-18T01:01:28.950Z,54
2019-03-18T01:01:32.579Z,55
2019-03-18T01:01:48.439Z,54
2019-03-18T01:01:53.009Z,53
2019-03-18T01:01:56.441Z,55
2019-03-18T01:02:01.135Z,54
2019-03-18T01:02:05.791Z,55
2019-03-18T01:02:13.382Z,57
2019-03-18T01:02:15.704Z,58
2019-03-18T01:02:19.465Z,59
2019-03-18T01:02:26.286Z,60
2019-03-18T01:02:28.654Z,61
2019-03-18T01:02:33.364Z,60
2019-03-18T01:02:36.823Z,61
2019-03-18T01:02:43.834Z,60
2019-03-18T01:02:56.437Z,53
2019-03-18T01:03:02.736Z,55
2019-03-18T01:03:06.303Z,57
2019-03-18T01:03:08.611Z,56
2019-03-18T01:03:12.210Z,55
2019-03-18T01:03:19.745Z,57
2019-03-18T01:03:27.833Z,55
2019-03-18T01:03:30.187Z,54
2019-03-18T01:03:38.944Z,53
2019-03-18T01:03:45.879Z,54
2019-03-18T01:03:48.215Z,55
2019-03-18T01:03:53.421Z,54
2019-03-18T01:03:59.274Z,55
2019-03-18T01:04:00.723Z,53
2019-03-18T01:04:04.331Z,54
2019-03-18T01:04:05.523Z,55
2019-03-18T01:04:10.296Z,56
2019-03-18T01:04:16.033Z,57
2019-03-18T01:04:24.217Z,56
2019-03-18T01:04:26.623Z,55
2019-03-18T01:04:30.796Z,54
2019-03-18T01:04:34.180Z,55
2019-03-18T01:04:36.583Z,54
2019-03-18T01:04:42.309Z,56
2019-03-18T01:04:50.116Z,57
2019-03-18T01:04:57.918Z,53
2019-03-18T01:05:01.538Z,52
2019-03-18T01:05:18.394Z,53
2019-03-18T01:05:25.468Z,52
2019-03-18T01:05:36.182Z,53
2019-03-18T01:05:38.416Z,52
2019-03-18T01:05:41.922Z,53
2019-03-18T01:05:44.317Z,55
2019-03-18T01:05:49.024Z,56
2019-03-18T01:05:52.505Z,55
2019-03-18T01:05:54.698Z,56
2019-03-18T01:06:07.070Z,58
2019-03-18T01:06:11.653Z,57
2019-03-18T01:06:15.145Z,55
2019-03-18T01:06:17.543Z,57
2019-03-18T01:06:19.884Z,56
2019-03-18T01:06:23.248Z,57
2019-03-18T01:06:25.605Z,58
2019-03-18T01:06:30.354Z,59
2019-03-18T01:06:32.669Z,61
2019-03-18T01:06:37.335Z,60
2019-03-18T01:06:39.743Z,59
2019-03-18T01:06:43.232Z,57
2019-03-18T01:06:45.612Z,59
2019-03-18T01:06:50.233Z,58
2019-03-18T01:06:52.565Z,56
2019-03-18T01:06:59.335Z,55
2019-03-18T01:07:01.546Z,54
2019-03-18T01:07:06.996Z,55
2019-03-18T01:07:09.264Z,53
2019-03-18T01:07:13.985Z,55
2019-03-18T01:07:18.571Z,54
2019-03-18T01:07:20.833Z,53
2019-03-18T01:07:23.382Z,52
2019-03-18T01:07:32.481Z,54
2019-03-18T01:07:34.834Z,53
2019-03-18T01:07:37.157Z,54
2019-03-18T01:07:40.520Z,56
2019-03-18T01:07:42.907Z,58
2019-03-18T01:07:46.364Z,59
2019-03-18T01:07:51.065Z,58
2019-03-18T01:07:54.512Z,56
2019-03-18T01:07:56.899Z,55
2019-03-18T01:08:00.327Z,56
2019-03-18T01:08:01.409Z,57
2019-03-18T01:08:07.222Z,56
2019-03-18T01:08:11.818Z,53
2019-03-18T01:08:14.143Z,54
2019-03-18T01:08:18.712Z,56
2019-03-18T01:08:23.345Z,55
2019-03-18T01:08:26.765Z,54
2019-03-18T01:08:31.391Z,53
2019-03-18T01:08:35.983Z,52
2019-03-18T01:08:39.392Z,51
2019-03-18T01:08:53.315Z,50
2019-03-18T01:09:01.046Z,51
2019-03-18T01:09:04.583Z,54
2019-03-18T01:09:12.800Z,53
2019-03-18T01:09:17.428Z,52
2019-03-18T01:09:22.173Z,51
2019-03-18T01:09:27.964Z,52
2019-03-18T01:09:47.422Z,51
2019-03-18T01:09:48.679Z,52
2019-03-18T01:09:54.457Z,55
2019-03-18T01:09:57.953Z,56
2019-03-18T01:10:00.399Z,57
2019-03-18T01:10:09.435Z,55